KBLU/BLU METAR and TAF weather

Enter ICAO airport designator
Station Type Date Time Source
KBLU METAR 2021/07/29 02:05 UTC NOAA

KBLU 290205Z AUTO VRB03KT 2SM HZ OVC027 26/08 A3027 RMK AO2 T02560078 $


Station Type Date Time Source
KBLU Decoded METAR 2021/07/29 02:05 UTC NOAA

BLUE CANYON AIRPORT, CA, United States (KBLU) 39-17N 120-42W 1609M
Jul 28, 2021 - 10:05 PM EDT / 2021.07.29 0205 UTC
Wind: Variable at 3 MPH (3 KT):0
Visibility: 2 mile(s):0
Sky conditions: overcast
Weather: haze
Temperature: 78.1 F (25.6 C)
Dew Point: 46.0 F (7.8 C)
Relative Humidity: 32%
Pressure (altimeter): 30.27 in. Hg (1025 hPa)
ob: KBLU 290205Z AUTO VRB03KT 2SM HZ OVC027 26/08 A3027 RMK AO2 T02560078
cycle: 2

Station Type Date Time Source
KBLU TAF UTC NOAA

Error!

Example: see airport list